Terminal Aerodrome Forecast
Issued by NWS Binghamton, NY

Home | Current Version | Previous Version | Text Only | Print | Product List | Glossary On
Versions: 1 2 3 4 5 6 7 8 9 10 11 12 13 14 15 16 17 18 19 20 21
000
FTUS41 KBGM 062329
TAFBGM
TAF
KBGM 062329Z 0700/0724 17007KT P6SM SCT020 BKN080
      TEMPO 0700/0702 BKN020 OVC080
     FM070200 16007KT P6SM OVC018
     FM070900 17006KT 2SM BR OVC007
     FM071500 21006KT 6SM HZ BKN025
     FM071900 23009KT 5SM HZ BKN050=

USA.gov is the U.S. government's official web portal to all federal, state and local government web resources and services.